createdAt,value
2022-10-13T00:00:42.551Z,53.82
2022-10-13T00:02:44.166Z,53.70
2022-10-13T00:04:45.753Z,53.74
2022-10-13T00:06:47.243Z,53.78
2022-10-13T00:08:49.023Z,54.03
2022-10-13T00:10:51.106Z,54.06
2022-10-13T00:12:58.302Z,53.95
2022-10-13T00:14:59.940Z,54.04
2022-10-13T00:17:01.503Z,54.25
2022-10-13T00:19:03.211Z,54.17
2022-10-13T00:21:14.041Z,54.15
2022-10-13T00:23:17.092Z,54.14
2022-10-13T00:25:18.713Z,54.09
2022-10-13T00:27:21.695Z,54.20
2022-10-13T00:29:23.730Z,54.15
2022-10-13T00:31:27.965Z,54.02
2022-10-13T00:33:29.647Z,53.85
2022-10-13T00:35:31.280Z,53.92
2022-10-13T00:37:32.725Z,53.91
2022-10-13T00:39:34.568Z,54.03
2022-10-13T00:41:36.594Z,53.97
2022-10-13T00:43:53.738Z,54.27
2022-10-13T00:45:55.440Z,54.13
2022-10-13T00:48:00.867Z,54.14
2022-10-13T00:50:03.082Z,54.25
2022-10-13T00:52:04.627Z,54.40
2022-10-13T00:54:08.971Z,54.43
2022-10-13T00:56:13.282Z,54.50
2022-10-13T00:58:19.367Z,54.58
2022-10-13T01:00:23.327Z,54.57
2022-10-13T01:02:31.546Z,54.72
2022-10-13T01:04:45.395Z,54.74
2022-10-13T01:06:46.909Z,54.69
2022-10-13T01:08:49.454Z,54.74
2022-10-13T01:11:09.593Z,54.75
2022-10-13T01:13:26.444Z,54.94
2022-10-13T01:15:35.643Z,54.80
2022-10-13T01:17:42.045Z,54.91
2022-10-13T01:19:52.579Z,54.78
2022-10-13T01:22:27.208Z,55.02
2022-10-13T01:24:43.033Z,54.73
2022-10-13T01:27:03.761Z,55.06
2022-10-13T01:29:24.590Z,54.97
2022-10-13T01:31:41.908Z,55.08
2022-10-13T01:33:51.247Z,54.96
2022-10-13T01:36:15.124Z,55.15
2022-10-13T01:38:44.614Z,55.02
2022-10-13T01:41:00.559Z,54.97
2022-10-13T01:43:07.810Z,54.89
2022-10-13T01:45:12.494Z,54.92
2022-10-13T01:47:17.271Z,55.17
2022-10-13T01:49:24.347Z,55.20
2022-10-13T01:51:29.277Z,55.08
2022-10-13T01:53:31.946Z,55.10
2022-10-13T01:55:33.476Z,55.17
2022-10-13T01:57:43.999Z,55.14
2022-10-13T01:59:45.995Z,55.19
2022-10-13T02:01:52.117Z,55.20
2022-10-13T02:04:14.087Z,55.17
2022-10-13T02:06:24.211Z,55.20
2022-10-13T02:08:37.624Z,54.82
2022-10-13T02:10:50.665Z,54.79
2022-10-13T02:12:57.858Z,54.60
2022-10-13T02:15:01.042Z,54.47
2022-10-13T02:17:04.841Z,54.39
2022-10-13T02:19:11.574Z,54.43
2022-10-13T02:21:13.270Z,54.39
2022-10-13T02:23:17.370Z,54.33
2022-10-13T02:25:19.142Z,54.31
2022-10-13T02:27:22.358Z,54.50
2022-10-13T02:29:24.751Z,54.42
2022-10-13T02:31:26.479Z,54.52
2022-10-13T02:33:28.169Z,54.73
2022-10-13T02:35:31.095Z,54.65
2022-10-13T02:37:36.778Z,54.80
2022-10-13T02:39:39.172Z,54.76
2022-10-13T02:41:46.350Z,55.12
2022-10-13T02:43:47.991Z,54.94
2022-10-13T02:45:49.542Z,55.10
2022-10-13T02:47:51.295Z,55.39
2022-10-13T02:49:52.749Z,55.32
2022-10-13T02:51:54.408Z,55.64
2022-10-13T02:53:56.117Z,55.24
2022-10-13T02:55:57.692Z,55.28
2022-10-13T02:57:59.956Z,55.40
2022-10-13T03:00:01.721Z,55.53
2022-10-13T03:02:03.232Z,55.42
2022-10-13T03:04:05.010Z,55.44
2022-10-13T03:06:07.676Z,55.49
2022-10-13T03:08:09.313Z,55.64
2022-10-13T03:10:10.833Z,55.50
2022-10-13T03:12:12.509Z,55.48
2022-10-13T03:14:14.162Z,55.57
2022-10-13T03:16:16.146Z,55.56
2022-10-13T03:18:17.908Z,55.55
2022-10-13T03:20:19.613Z,55.69
2022-10-13T03:22:21.654Z,55.63
2022-10-13T03:24:24.449Z,55.67
2022-10-13T03:26:26.400Z,55.67
2022-10-13T03:28:28.542Z,55.74
2022-10-13T03:30:30.369Z,55.48
2022-10-13T03:32:32.091Z,55.47
2022-10-13T03:34:33.905Z,55.60
2022-10-13T03:36:35.638Z,55.44
2022-10-13T03:38:37.530Z,55.36
2022-10-13T03:40:39.189Z,55.25
2022-10-13T03:42:40.995Z,55.04
2022-10-13T03:44:42.795Z,55.05
2022-10-13T03:46:44.933Z,55.14
2022-10-13T03:48:47.660Z,54.79
2022-10-13T03:50:49.220Z,54.83
2022-10-13T03:52:50.674Z,54.91
2022-10-13T03:54:52.625Z,55.01
2022-10-13T03:56:54.275Z,54.88
2022-10-13T03:58:58.284Z,54.87
2022-10-13T04:01:05.372Z,55.00
2022-10-13T04:03:06.942Z,54.99
2022-10-13T04:05:09.324Z,54.95
2022-10-13T04:07:11.189Z,55.38
2022-10-13T04:09:13.144Z,55.39
2022-10-13T04:11:16.236Z,55.78
2022-10-13T04:13:19.152Z,55.68
2022-10-13T04:15:23.127Z,55.10
2022-10-13T04:17:24.712Z,55.22
2022-10-13T04:19:26.344Z,55.17
2022-10-13T04:21:30.542Z,55.09
2022-10-13T04:23:32.155Z,55.20
2022-10-13T04:25:38.338Z,55.52
2022-10-13T04:27:40.067Z,55.18
2022-10-13T04:29:41.821Z,55.30
2022-10-13T04:31:44.025Z,55.23
2022-10-13T04:33:45.778Z,55.13
2022-10-13T04:35:47.483Z,54.84
2022-10-13T04:37:50.350Z,54.92
2022-10-13T04:39:51.847Z,55.75
2022-10-13T04:41:53.535Z,55.30
2022-10-13T04:43:55.329Z,55.35
2022-10-13T04:46:18.422Z,55.51
2022-10-13T04:48:19.922Z,55.73
2022-10-13T04:50:21.480Z,55.49
2022-10-13T04:52:34.562Z,55.28
2022-10-13T04:54:39.122Z,55.53
2022-10-13T04:56:40.691Z,55.61
2022-10-13T04:58:44.766Z,55.75
2022-10-13T05:00:47.334Z,55.75
2022-10-13T05:02:54.932Z,55.75
2022-10-13T05:04:56.563Z,55.72
2022-10-13T05:07:18.078Z,55.72
2022-10-13T05:09:22.759Z,55.99
2022-10-13T05:11:26.851Z,55.59
2022-10-13T05:13:30.366Z,55.75
2022-10-13T05:15:32.008Z,55.63
2022-10-13T05:17:35.441Z,55.69
2022-10-13T05:19:42.573Z,55.68
2022-10-13T05:21:45.435Z,55.59
2022-10-13T05:23:47.389Z,55.46
2022-10-13T05:25:49.068Z,55.56
2022-10-13T05:27:53.303Z,55.39
2022-10-13T05:29:54.778Z,55.63
2022-10-13T05:31:56.408Z,55.49
2022-10-13T05:33:58.249Z,55.65
2022-10-13T05:36:11.789Z,55.79
2022-10-13T05:38:13.408Z,55.74
2022-10-13T05:40:15.472Z,55.91
2022-10-13T05:42:17.092Z,55.71
2022-10-13T05:44:19.314Z,55.61
2022-10-13T05:46:30.173Z,55.48
2022-10-13T05:48:31.926Z,55.91
2022-10-13T05:50:34.539Z,55.74
2022-10-13T05:52:40.744Z,55.75
2022-10-13T05:54:48.308Z,55.97
2022-10-13T05:57:08.812Z,55.74
2022-10-13T05:59:13.956Z,56.00
2022-10-13T06:01:19.926Z,55.95
2022-10-13T06:03:23.298Z,55.90
2022-10-13T06:05:26.383Z,55.91
2022-10-13T06:07:31.909Z,55.79
2022-10-13T06:09:37.862Z,55.60
2022-10-13T06:11:39.859Z,55.81
2022-10-13T06:13:41.484Z,55.93
2022-10-13T06:15:43.114Z,56.02
2022-10-13T06:17:55.341Z,55.81
2022-10-13T06:19:57.051Z,55.93
2022-10-13T06:22:03.281Z,55.75
2022-10-13T06:24:05.598Z,55.84
2022-10-13T06:26:07.819Z,55.71
2022-10-13T06:28:13.067Z,55.91
2022-10-13T06:30:14.712Z,55.98
2022-10-13T06:32:16.309Z,55.98
2022-10-13T06:34:18.103Z,56.01
2022-10-13T06:36:19.718Z,55.82
2022-10-13T06:38:23.388Z,56.13
2022-10-13T06:40:26.162Z,55.91
2022-10-13T06:42:31.720Z,55.74
2022-10-13T06:44:44.625Z,55.91
2022-10-13T06:46:46.478Z,55.96
2022-10-13T06:48:52.223Z,56.00
2022-10-13T06:50:55.206Z,55.95
2022-10-13T06:52:56.862Z,55.82
2022-10-13T06:54:58.540Z,56.07
2022-10-13T06:57:00.257Z,55.98
2022-10-13T06:59:01.748Z,56.08
2022-10-13T07:01:04.541Z,56.09
2022-10-13T07:03:07.087Z,55.96
2022-10-13T07:05:08.983Z,55.91
2022-10-13T07:07:11.075Z,56.03
2022-10-13T07:09:12.524Z,56.07
2022-10-13T07:11:16.158Z,56.15
2022-10-13T07:13:36.348Z,56.07
2022-10-13T07:15:40.376Z,56.29
2022-10-13T07:17:42.343Z,56.42
2022-10-13T07:19:43.983Z,56.06
2022-10-13T07:21:45.745Z,56.07
2022-10-13T07:23:47.414Z,56.38
2022-10-13T07:25:49.051Z,56.54
2022-10-13T07:27:50.628Z,56.32
2022-10-13T07:29:52.339Z,56.32
2022-10-13T07:31:54.300Z,56.22
2022-10-13T07:33:58.240Z,56.22
2022-10-13T07:36:03.512Z,56.16
2022-10-13T07:38:05.451Z,56.30
2022-10-13T07:40:08.095Z,56.36
2022-10-13T07:42:09.716Z,56.45
2022-10-13T07:44:11.270Z,56.25
2022-10-13T07:46:15.596Z,56.32
2022-10-13T07:48:17.130Z,56.38
2022-10-13T07:50:21.728Z,56.20
2022-10-13T07:52:23.473Z,56.25
2022-10-13T07:54:27.407Z,56.31
2022-10-13T07:56:29.342Z,56.67
2022-10-13T07:58:30.904Z,56.40
2022-10-13T08:00:32.494Z,56.32
2022-10-13T08:02:34.885Z,56.48
2022-10-13T08:04:37.164Z,56.40
2022-10-13T08:06:42.085Z,56.45
2022-10-13T08:08:43.874Z,56.47
2022-10-13T08:10:47.639Z,56.54
2022-10-13T08:12:49.189Z,56.66
2022-10-13T08:14:51.227Z,56.53
2022-10-13T08:16:53.741Z,56.50
2022-10-13T08:18:57.498Z,56.55
2022-10-13T08:21:33.132Z,56.64
2022-10-13T08:23:27.493Z,56.55
2022-10-13T08:25:29.124Z,56.39
2022-10-13T08:27:49.561Z,56.68
2022-10-13T08:29:54.626Z,56.37
2022-10-13T08:31:56.645Z,56.52
2022-10-13T08:33:58.299Z,56.62
2022-10-13T08:35:59.891Z,56.95
2022-10-13T08:38:01.624Z,56.82
2022-10-13T08:40:03.688Z,56.64
2022-10-13T08:42:34.462Z,56.89
2022-10-13T08:47:32.455Z,57.00
2022-10-13T08:49:34.068Z,56.60
2022-10-13T08:51:36.614Z,56.57
2022-10-13T08:53:41.368Z,56.72
2022-10-13T08:55:45.675Z,56.72
2022-10-13T08:57:47.441Z,56.59
2022-10-13T08:59:49.395Z,56.64
2022-10-13T09:01:59.516Z,56.55
2022-10-13T09:04:22.718Z,56.77
2022-10-13T09:06:33.906Z,56.71
2022-10-13T09:08:44.159Z,56.71
2022-10-13T09:10:48.475Z,56.61
2022-10-13T09:12:53.618Z,56.68
2022-10-13T09:15:02.979Z,56.75
2022-10-13T09:17:26.355Z,56.63
2022-10-13T09:19:36.166Z,56.84
2022-10-13T09:21:39.248Z,56.57
2022-10-13T09:23:42.010Z,56.79
2022-10-13T09:25:49.931Z,56.67
2022-10-13T09:28:01.079Z,56.78
2022-10-13T09:30:23.270Z,56.76
2022-10-13T09:32:35.652Z,56.83
2022-10-13T09:34:37.215Z,56.99
2022-10-13T09:36:56.011Z,56.79
2022-10-13T09:39:16.302Z,57.07
2022-10-13T09:41:22.097Z,56.95
2022-10-13T09:43:45.495Z,57.00
2022-10-13T09:45:56.933Z,56.93
2022-10-13T09:48:03.212Z,56.86
2022-10-13T09:50:23.363Z,57.03
2022-10-13T09:52:25.429Z,56.92
2022-10-13T09:54:51.413Z,57.21
2022-10-13T09:57:02.933Z,56.91
2022-10-13T09:59:21.520Z,56.86
2022-10-13T10:01:28.329Z,56.99
2022-10-13T10:03:34.589Z,57.10
2022-10-13T10:05:53.846Z,57.09
2022-10-13T10:08:02.985Z,57.14
2022-10-13T10:10:18.752Z,57.14
2022-10-13T10:12:27.659Z,57.00
2022-10-13T10:14:36.260Z,57.12
2022-10-13T10:16:53.389Z,57.06
2022-10-13T10:19:08.115Z,57.03
2022-10-13T10:21:31.620Z,57.20
2022-10-13T10:23:46.485Z,57.20
2022-10-13T10:26:01.488Z,57.18
2022-10-13T10:28:34.994Z,56.83
2022-10-13T10:30:57.654Z,56.99
2022-10-13T10:33:39.485Z,57.07
2022-10-13T10:35:49.704Z,57.08
2022-10-13T10:38:44.101Z,57.03
2022-10-13T10:40:52.188Z,57.13
2022-10-13T10:43:08.905Z,57.27
2022-10-13T10:45:25.542Z,57.20
2022-10-13T10:47:36.249Z,57.04
2022-10-13T10:49:39.497Z,57.03
2022-10-13T10:51:41.406Z,56.96
2022-10-13T10:54:07.430Z,57.17
2022-10-13T10:56:19.724Z,57.11
2022-10-13T10:58:39.705Z,57.02
2022-10-13T11:00:52.109Z,57.06
2022-10-13T11:03:14.338Z,56.94
2022-10-13T11:05:17.440Z,56.87
2022-10-13T11:07:41.759Z,57.10
2022-10-13T11:09:43.245Z,56.83
2022-10-13T11:11:44.862Z,56.90
2022-10-13T11:13:53.004Z,56.70
2022-10-13T11:15:55.763Z,56.76
2022-10-13T11:17:57.706Z,56.73
2022-10-13T11:20:00.424Z,56.73
2022-10-13T11:22:02.058Z,56.77
2022-10-13T11:24:25.043Z,56.67
2022-10-13T11:26:31.326Z,56.64
2022-10-13T11:28:42.313Z,56.50
2022-10-13T11:30:51.819Z,56.76
2022-10-13T11:32:56.326Z,56.46
2022-10-13T11:35:02.926Z,56.48
2022-10-13T11:37:17.288Z,56.36
2022-10-13T11:39:47.669Z,56.81
2022-10-13T11:42:09.695Z,56.54
2022-10-13T11:44:37.938Z,56.57
2022-10-13T11:47:17.096Z,56.57
2022-10-13T11:49:45.462Z,56.52
2022-10-13T11:52:04.280Z,56.51
2022-10-13T11:54:35.129Z,56.63
2022-10-13T11:56:48.253Z,56.63
2022-10-13T11:58:50.402Z,56.72
2022-10-13T12:01:04.476Z,56.75
2022-10-13T12:03:06.045Z,56.42
2022-10-13T12:05:25.312Z,56.56
2022-10-13T12:07:32.520Z,56.81
2022-10-13T12:09:55.100Z,56.55
2022-10-13T12:12:12.618Z,56.55
2022-10-13T12:14:31.135Z,56.73
2022-10-13T12:16:35.791Z,56.93
2022-10-13T12:18:40.103Z,56.47
2022-10-13T12:20:41.933Z,56.58
2022-10-13T12:22:51.579Z,56.64
2022-10-13T12:25:01.648Z,56.69
2022-10-13T12:27:12.154Z,56.38
2022-10-13T12:29:15.051Z,56.40
2022-10-13T12:31:20.643Z,56.41
2022-10-13T12:33:35.325Z,56.19
2022-10-13T12:35:36.956Z,56.38
2022-10-13T12:37:38.675Z,56.09
2022-10-13T12:39:41.034Z,56.43
2022-10-13T12:41:45.137Z,56.22
2022-10-13T12:43:46.813Z,56.12
2022-10-13T12:45:48.450Z,56.24
2022-10-13T12:47:52.413Z,56.10
2022-10-13T12:50:29.228Z,56.29
2022-10-13T12:52:34.518Z,56.36
2022-10-13T12:54:47.525Z,56.31
2022-10-13T12:56:55.289Z,56.32
2022-10-13T12:58:59.523Z,56.03
2022-10-13T13:01:21.318Z,56.35
2022-10-13T13:03:27.482Z,55.87
2022-10-13T13:05:49.241Z,55.97
2022-10-13T13:07:53.507Z,56.24
2022-10-13T13:10:02.888Z,56.25
2022-10-13T13:12:08.403Z,56.38
2022-10-13T13:14:38.876Z,56.01
2022-10-13T13:16:40.581Z,56.29
2022-10-13T13:18:44.182Z,55.99
2022-10-13T13:20:45.761Z,56.28
2022-10-13T13:22:47.677Z,56.13
2022-10-13T13:24:53.116Z,56.15
2022-10-13T13:26:54.982Z,56.04
2022-10-13T13:28:57.195Z,56.09
2022-10-13T13:30:59.710Z,55.91
2022-10-13T13:33:01.748Z,55.91
2022-10-13T13:35:04.511Z,55.69
2022-10-13T13:37:09.407Z,55.66
2022-10-13T13:39:15.789Z,55.84
2022-10-13T13:41:18.184Z,55.66
2022-10-13T13:43:19.708Z,56.06
2022-10-13T13:45:24.916Z,55.89
2022-10-13T13:47:28.952Z,55.70
2022-10-13T13:49:30.593Z,55.55
2022-10-13T13:51:32.457Z,55.76
2022-10-13T13:53:34.027Z,55.79
2022-10-13T13:55:35.838Z,55.82
2022-10-13T13:57:38.260Z,55.36
2022-10-13T13:59:40.881Z,55.56
2022-10-13T14:01:43.012Z,55.54
2022-10-13T14:03:45.185Z,55.42
2022-10-13T14:05:50.315Z,55.79
2022-10-13T14:07:58.536Z,55.78
2022-10-13T14:10:02.104Z,55.48
2022-10-13T14:12:05.012Z,55.70
2022-10-13T14:14:06.585Z,55.72
2022-10-13T14:16:15.479Z,55.43
2022-10-13T14:18:17.143Z,55.61
2022-10-13T14:20:19.511Z,55.36
2022-10-13T14:22:22.432Z,55.53
2022-10-13T14:24:24.887Z,55.30
2022-10-13T14:26:26.719Z,55.56
2022-10-13T14:28:28.358Z,55.59
2022-10-13T14:30:29.978Z,55.49
2022-10-13T14:32:31.574Z,55.39
2022-10-13T14:34:33.580Z,55.11
2022-10-13T14:36:35.347Z,55.32
2022-10-13T14:38:37.001Z,55.10
2022-10-13T14:40:45.006Z,54.98
2022-10-13T14:42:46.574Z,54.99
2022-10-13T14:44:50.017Z,55.22
2022-10-13T14:46:51.553Z,55.11
2022-10-13T14:48:55.537Z,54.87
2022-10-13T14:50:59.983Z,55.16
2022-10-13T14:53:03.394Z,55.13
2022-10-13T14:55:08.003Z,54.97
2022-10-13T14:57:16.059Z,55.14
2022-10-13T14:59:18.563Z,54.93
2022-10-13T15:01:24.609Z,55.05
2022-10-13T15:03:27.741Z,55.10
2022-10-13T15:05:29.639Z,55.14
2022-10-13T15:07:31.376Z,54.98
2022-10-13T15:09:45.217Z,54.73
2022-10-13T15:11:54.656Z,54.67
2022-10-13T15:13:57.022Z,54.71
2022-10-13T15:16:02.524Z,54.65
2022-10-13T15:18:04.238Z,54.95
2022-10-13T15:20:07.852Z,54.65
2022-10-13T15:22:09.543Z,55.02
2022-10-13T15:24:12.023Z,54.78
2022-10-13T15:26:19.975Z,55.05
2022-10-13T15:28:25.208Z,54.63
2022-10-13T15:30:26.857Z,54.96
2022-10-13T15:32:28.517Z,54.95
2022-10-13T15:34:35.442Z,54.61
2022-10-13T15:36:37.093Z,54.90
2022-10-13T15:38:38.760Z,54.76
2022-10-13T15:40:41.384Z,54.87
2022-10-13T15:42:45.651Z,54.61
2022-10-13T15:47:16.320Z,54.71
2022-10-13T15:49:18.979Z,55.07
2022-10-13T15:51:24.027Z,54.82
2022-10-13T15:53:26.355Z,55.05
2022-10-13T15:55:28.706Z,55.03
2022-10-13T15:57:31.496Z,54.96
2022-10-13T15:59:33.381Z,54.76
2022-10-13T16:01:35.084Z,54.99
2022-10-13T16:03:37.787Z,55.33
2022-10-13T16:05:44.665Z,54.99
2022-10-13T16:07:46.425Z,54.91
2022-10-13T16:09:48.099Z,54.82
2022-10-13T16:11:50.864Z,54.92
2022-10-13T16:13:52.508Z,54.85
2022-10-13T16:16:01.195Z,55.13
2022-10-13T16:18:03.411Z,54.98
2022-10-13T16:20:06.635Z,54.80
2022-10-13T16:22:08.914Z,54.81
2022-10-13T16:24:10.676Z,55.07
2022-10-13T16:26:12.521Z,54.98
2022-10-13T16:28:15.004Z,54.97
2022-10-13T16:30:16.840Z,55.07
2022-10-13T16:32:18.676Z,55.22
2022-10-13T16:34:20.891Z,55.11
2022-10-13T16:36:23.793Z,55.07
2022-10-13T16:38:26.617Z,55.27
2022-10-13T16:40:28.301Z,55.17
2022-10-13T16:42:29.959Z,55.31
2022-10-13T16:44:32.224Z,55.45
2022-10-13T16:46:34.481Z,55.17
2022-10-13T16:48:36.394Z,55.40
2022-10-13T16:50:38.215Z,55.31
2022-10-13T16:52:39.854Z,55.33
2022-10-13T16:54:41.684Z,55.27
2022-10-13T16:56:43.571Z,55.43
2022-10-13T16:58:45.301Z,55.31
2022-10-13T17:00:47.093Z,55.36
2022-10-13T17:02:49.020Z,55.35
2022-10-13T17:04:50.731Z,55.45
2022-10-13T17:06:52.440Z,55.69
2022-10-13T17:08:55.254Z,55.48
2022-10-13T17:10:58.453Z,55.65
2022-10-13T17:13:00.477Z,55.50
2022-10-13T17:15:02.434Z,55.62
2022-10-13T17:17:04.295Z,55.66
2022-10-13T17:19:12.314Z,55.57
2022-10-13T17:21:16.488Z,55.64
2022-10-13T17:23:20.861Z,55.54
2022-10-13T17:25:23.364Z,55.42
2022-10-13T17:27:25.515Z,55.77
2022-10-13T17:29:27.475Z,55.61
2022-10-13T17:31:30.924Z,55.64
2022-10-13T17:33:34.887Z,55.80
2022-10-13T17:35:36.590Z,55.70
2022-10-13T17:37:38.220Z,55.66
2022-10-13T17:39:39.916Z,55.64
2022-10-13T17:41:41.682Z,55.76
2022-10-13T17:43:44.244Z,55.58
2022-10-13T17:45:48.868Z,55.68
2022-10-13T17:47:52.368Z,55.92
2022-10-13T17:49:56.633Z,55.92
2022-10-13T17:51:58.861Z,55.77
2022-10-13T17:54:03.891Z,55.86
2022-10-13T17:56:10.880Z,55.86
2022-10-13T17:58:15.308Z,55.99
2022-10-13T18:00:17.222Z,55.87
2022-10-13T18:02:21.639Z,56.14
2022-10-13T18:04:23.722Z,56.27
2022-10-13T18:06:25.853Z,55.88
2022-10-13T18:08:27.587Z,56.05
2022-10-13T18:10:33.871Z,55.97
2022-10-13T18:12:47.150Z,56.11
2022-10-13T18:14:48.832Z,56.27
2022-10-13T18:16:51.791Z,56.19
2022-10-13T18:18:54.240Z,56.29
2022-10-13T18:20:56.109Z,56.16
2022-10-13T18:22:58.852Z,56.35
2022-10-13T18:25:00.499Z,56.37
2022-10-13T18:27:02.133Z,56.10
2022-10-13T18:29:05.884Z,56.20
2022-10-13T18:31:11.618Z,56.27
2022-10-13T18:33:13.239Z,56.20
2022-10-13T18:35:16.929Z,56.41
2022-10-13T18:37:19.138Z,56.20
2022-10-13T18:39:24.949Z,56.33
2022-10-13T18:41:26.772Z,56.30
2022-10-13T18:43:30.460Z,56.18
2022-10-13T18:45:35.408Z,56.17
2022-10-13T18:47:37.157Z,56.20
2022-10-13T18:49:39.381Z,56.14
2022-10-13T18:51:41.396Z,56.21
2022-10-13T18:53:45.150Z,56.24
2022-10-13T18:55:47.112Z,56.19
2022-10-13T18:57:48.751Z,56.17
2022-10-13T18:59:50.389Z,56.22
2022-10-13T19:01:53.581Z,56.20
2022-10-13T19:03:57.215Z,56.24
2022-10-13T19:05:59.095Z,56.08
2022-10-13T19:08:00.738Z,56.19
2022-10-13T19:10:02.522Z,56.20
2022-10-13T19:12:04.605Z,56.24
2022-10-13T19:14:08.951Z,56.27
2022-10-13T19:16:13.732Z,56.48
2022-10-13T19:18:15.687Z,56.24
2022-10-13T19:20:21.017Z,56.11
2022-10-13T19:22:26.821Z,56.26
2022-10-13T19:24:28.576Z,56.14
2022-10-13T19:26:38.297Z,56.12
2022-10-13T19:28:47.744Z,56.30
2022-10-13T19:30:50.377Z,56.10
2022-10-13T19:33:00.323Z,56.09
2022-10-13T19:35:01.887Z,55.90
2022-10-13T19:37:05.180Z,56.06
2022-10-13T19:39:22.242Z,56.13
2022-10-13T19:41:24.857Z,56.08
2022-10-13T19:43:26.805Z,56.19
2022-10-13T19:45:28.396Z,56.10
2022-10-13T19:47:30.179Z,55.96
2022-10-13T19:49:31.861Z,56.28
2022-10-13T19:51:34.065Z,56.17
2022-10-13T19:53:36.544Z,56.18
2022-10-13T19:55:40.380Z,56.18
2022-10-13T19:57:42.125Z,56.26
2022-10-13T19:59:47.787Z,56.25
2022-10-13T20:01:49.631Z,56.24
2022-10-13T20:03:51.359Z,56.14
2022-10-13T20:05:52.917Z,56.43
2022-10-13T20:07:55.253Z,56.34
2022-10-13T20:09:56.810Z,56.22
2022-10-13T20:11:58.324Z,56.28
2022-10-13T20:14:02.660Z,56.35
2022-10-13T20:16:09.179Z,56.30
2022-10-13T20:18:13.312Z,56.34
2022-10-13T20:20:22.166Z,56.38
2022-10-13T20:22:24.757Z,56.24
2022-10-13T20:24:26.478Z,56.20
2022-10-13T20:26:28.393Z,56.26
2022-10-13T20:28:30.446Z,56.25
2022-10-13T20:30:32.819Z,56.36
2022-10-13T20:32:34.428Z,56.46
2022-10-13T20:34:35.968Z,56.34
2022-10-13T20:36:39.096Z,56.29
2022-10-13T20:38:41.919Z,56.19
2022-10-13T20:40:44.142Z,56.47
2022-10-13T20:42:51.805Z,56.59
2022-10-13T20:44:55.229Z,56.30
2022-10-13T20:46:56.782Z,56.48
2022-10-13T20:49:16.822Z,56.35
2022-10-13T20:51:21.621Z,56.47
2022-10-13T20:53:23.436Z,56.50
2022-10-13T20:55:27.063Z,56.24
2022-10-13T20:57:28.670Z,56.53
2022-10-13T20:59:30.139Z,56.37
2022-10-13T21:01:32.771Z,56.53
2022-10-13T21:03:34.469Z,56.39
2022-10-13T21:05:39.346Z,56.48
2022-10-13T21:07:42.138Z,56.62
2022-10-13T21:09:43.872Z,56.35
2022-10-13T21:11:45.528Z,56.49
2022-10-13T21:13:48.089Z,56.56
2022-10-13T21:15:49.709Z,56.61
2022-10-13T21:17:54.470Z,56.61
2022-10-13T21:19:56.060Z,56.42
2022-10-13T21:21:57.695Z,56.59
2022-10-13T21:24:01.530Z,56.50
2022-10-13T21:26:05.471Z,56.60
2022-10-13T21:28:07.227Z,56.48
2022-10-13T21:30:09.789Z,56.56
2022-10-13T21:32:11.458Z,56.59
2022-10-13T21:34:14.980Z,56.80
2022-10-13T21:36:20.272Z,56.66
2022-10-13T21:38:22.252Z,56.63
2022-10-13T21:40:23.890Z,56.71
2022-10-13T21:42:25.582Z,56.63
2022-10-13T21:44:31.057Z,57.01
2022-10-13T21:46:35.094Z,56.76
2022-10-13T21:48:37.254Z,56.64
2022-10-13T21:50:38.765Z,56.72
2022-10-13T21:52:42.579Z,56.83
2022-10-13T21:54:44.258Z,56.73
2022-10-13T21:56:49.015Z,56.90
2022-10-13T21:58:50.702Z,57.01
2022-10-13T22:00:52.405Z,56.79
2022-10-13T22:02:54.204Z,56.77
2022-10-13T22:04:56.838Z,57.02
2022-10-13T22:06:58.491Z,56.97
2022-10-13T22:09:07.211Z,56.54
2022-10-13T22:11:10.983Z,57.07
2022-10-13T22:13:12.740Z,56.90
2022-10-13T22:15:14.406Z,57.12
2022-10-13T22:17:16.239Z,57.14
2022-10-13T22:19:19.707Z,57.12
2022-10-13T22:21:23.958Z,57.10
2022-10-13T22:23:25.810Z,57.27
2022-10-13T22:25:27.534Z,57.46
2022-10-13T22:27:29.059Z,57.26
2022-10-13T22:29:30.791Z,57.31
2022-10-13T22:31:33.342Z,57.36
2022-10-13T22:33:46.400Z,57.30
2022-10-13T22:35:49.178Z,57.45
2022-10-13T22:37:50.702Z,57.49
2022-10-13T22:39:52.328Z,57.40
2022-10-13T22:41:53.857Z,57.37
2022-10-13T22:43:57.351Z,57.41
2022-10-13T22:45:58.929Z,57.37
2022-10-13T22:48:02.055Z,57.40
2022-10-13T22:50:03.818Z,57.42
2022-10-13T22:52:05.389Z,57.49
2022-10-13T22:54:07.039Z,57.49
2022-10-13T22:56:14.253Z,57.51
2022-10-13T22:58:15.898Z,57.48
2022-10-13T23:00:17.883Z,57.46
2022-10-13T23:02:20.831Z,57.39
2022-10-13T23:04:22.616Z,57.33
2022-10-13T23:06:26.881Z,57.53
2022-10-13T23:08:28.575Z,57.55
2022-10-13T23:10:30.176Z,57.68
2022-10-13T23:12:31.889Z,57.81
2022-10-13T23:14:33.587Z,57.73
2022-10-13T23:16:35.055Z,57.82
2022-10-13T23:18:39.732Z,57.94
2022-10-13T23:20:44.172Z,57.94
2022-10-13T23:22:48.302Z,57.96
2022-10-13T23:24:50.033Z,58.00
2022-10-13T23:27:00.362Z,58.05
2022-10-13T23:29:03.639Z,58.11
2022-10-13T23:31:08.552Z,58.17
2022-10-13T23:33:10.071Z,58.10
2022-10-13T23:35:12.901Z,58.12
2022-10-13T23:37:14.461Z,58.10
2022-10-13T23:39:19.721Z,58.04
2022-10-13T23:41:21.429Z,58.14
2022-10-13T23:43:23.360Z,58.19
2022-10-13T23:45:25.031Z,58.18
2022-10-13T23:47:26.639Z,58.19
2022-10-13T23:49:28.429Z,58.13
2022-10-13T23:51:30.093Z,58.03
2022-10-13T23:53:37.379Z,58.11
2022-10-13T23:55:40.026Z,58.34
2022-10-13T23:57:41.646Z,58.20
2022-10-13T23:59:46.293Z,58.11
